New London — WYW9986 — position and weather

sailwx.info

Track history (hours):
 
Tides and Currents Weather Stations Pressure Air Temp Water Temp Dewpoint Dewpoint Depression Visibility Wind Speed Wind Dir Waves Ship Positions

New London

Owner: CROSS SOUND FERRY SVCS INC, NEW LONDON, CT. More information available from US FCC via Universal Licensing System and Coast Guard Vessel Documentation Center.

Last reported at 2017-Oct-22 22:21 UTC. Time now 2017-Nov-23 10:57 UTC.
Position N 41°17' W 072°05'.
Warning: this ship's position is 31 days out of date.

Length 76 m; draft 3 m.

Type: Passenger vessel. MMSI: 366925620.

Date/timePositionNaut miles runAvg speedWind from/ knotsBaromVisibWave heightAir tempDewpointWater temp
2017-Oct-22 22:21N 41°17' W 072°05'514.3
2017-Oct-22 22:00N 41°13' W 072°09'5 4.0
2017-Oct-22 20:47N 41°09' W 072°13'311.4
2017-Oct-22 20:30N 41°12' W 072°12'611.4
2017-Oct-22 20:00N 41°16' W 072°07'1 0.5
2017-Oct-22 18:23N 41°17' W 072°06'813.8
2017-Oct-22 17:47N 41°11' W 072°13'2 3.6
2017-Oct-22 17:17N 41°09' W 072°14'0 0.0
2017-Oct-22 16:51N 41°09' W 072°14'3 7.8
2017-Oct-22 16:30N 41°12' W 072°13'714.0
2017-Oct-22 16:00N 41°17' W 072°07'1 0.6
2017-Oct-22 14:29N 41°17' W 072°06'612.1
2017-Oct-22 14:00N 41°13' W 072°11'4 8.3
2017-Oct-22 13:30N 41°09' W 072°14'0 0.0
2017-Oct-22 13:00N 41°09' W 072°14'2 4.6
2017-Oct-22 12:29N 41°11' W 072°13'713.9
2017-Oct-22 12:00N 41°16' W 072°07'1 0.1
2017-Oct-21 18:19N 41°17' W 072°06'514.4
2017-Oct-21 17:58N 41°13' W 072°10'5 3.7
2017-Oct-21 16:42N 41°09' W 072°14'311.7
2017-Oct-21 16:29N 41°12' W 072°13'713.9
2017-Oct-21 16:00N 41°17' W 072°07'1 0.3
2017-Oct-21 14:18N 41°16' W 072°07'8 4.9
2017-Oct-21 12:36N 41°09' W 072°13'1 8.8
2017-Oct-21 12:30N 41°10' W 072°13'714.0
2017-Oct-21 12:00N 41°16' W 072°08'6 0.4
2017-Oct-20 20:33N 41°11' W 072°12'111.3
2017-Oct-20 20:30N 41°12' W 072°12'611.6
2017-Oct-20 19:57N 41°16' W 072°06'8 3.5
2017-Oct-20 17:43N 41°10' W 072°13'1 1.1
2017-Oct-20 16:41N 41°09' W 072°13'312.0
2017-Oct-20 16:27N 41°12' W 072°13'613.2
2017-Oct-20 16:00N 41°16' W 072°07'7 3.2
2017-Oct-20 13:44N 41°11' W 072°13'2 1.5
2017-Oct-20 12:41N 41°09' W 072°14'2 9.3
2017-Oct-20 12:30N 41°11' W 072°13'714.6
2017-Oct-20 12:00N 41°16' W 072°07'7 0.4
2017-Oct-19 17:18N 41°11' W 072°13'1 0.9
2017-Oct-19 16:11N 41°10' W 072°13'210.7
2017-Oct-19 15:59N 41°12' W 072°13'3 1.3
2017-Oct-19 13:42N 41°14' W 072°10'6 3.9
2017-Oct-19 12:15N 41°09' W 072°14'310.7
2017-Oct-19 11:57N 41°12' W 072°13'614.4
2017-Oct-19 11:30N 41°17' W 072°07'4 0.3
2017-Oct-18 23:34N 41°14' W 072°10'412.1
2017-Oct-18 23:13N 41°11' W 072°13'1 1.1
2017-Oct-18 22:09N 41°09' W 072°14'1 9.9
2017-Oct-18 22:00N 41°11' W 072°13'713.5
2017-Oct-18 21:28N 41°16' W 072°07'1 0.5
2017-Oct-18 19:42N 41°15' W 072°07'314.8
2017-Oct-18 19:30N 41°14' W 072°09'611.4
2017-Oct-18 19:00N 41°09' W 072°14'0 0.0
2017-Oct-18 18:30N 41°09' W 072°14'3 6.1
2017-Oct-18 18:00N 41°12' W 072°12'611.2
2017-Oct-18 17:30N 41°16' W 072°07'6 1.8
2017-Oct-18 14:00N 41°12' W 072°13'714.1
2017-Oct-18 13:30N 41°16' W 072°06'3 1.8
2017-Oct-18 11:40N 41°14' W 072°10'411.3
2017-Oct-18 11:17N 41°11' W 072°14'2 0.1
2017-Oct-18 00:13N 41°09' W 072°14'210.0
2017-Oct-18 00:00N 41°11' W 072°14'6 2.8
2017-Oct-17 21:48N 41°15' W 072°08'612.8
2017-Oct-17 21:18N 41°11' W 072°14'1 1.3
2017-Oct-17 20:14N 41°10' W 072°13'311.9
2017-Oct-17 20:00N 41°12' W 072°12'612.6
2017-Oct-17 19:30N 41°17' W 072°06'8 3.8
2017-Oct-17 17:17N 41°10' W 072°13'1 1.1
2017-Oct-17 16:15N 41°09' W 072°14'311.6
2017-Oct-17 16:00N 41°12' W 072°13'3 1.2
2017-Oct-17 13:41N 41°14' W 072°10'412.5
2017-Oct-17 13:20N 41°11' W 072°14'1 0.9
2017-Oct-17 12:13N 41°10' W 072°13'312.1
2017-Oct-17 12:00N 41°12' W 072°13'2 0.1
2017-Oct-16 20:47N 41°11' W 072°13'2 1.3
2017-Oct-16 19:28N 41°12' W 072°13'612.9
2017-Oct-16 19:00N 41°16' W 072°07'8 3.4
2017-Oct-16 16:46N 41°11' W 072°13'1 1.2
2017-Oct-16 15:43N 41°09' W 072°13'312.0
2017-Oct-16 15:30N 41°12' W 072°13'611.8
2017-Oct-16 15:00N 41°16' W 072°07'7 3.3
2017-Oct-16 12:51N 41°11' W 072°13'1 0.9
2017-Oct-16 11:39N 41°09' W 072°13'212.4
2017-Oct-16 11:27N 41°12' W 072°13'714.7
2017-Oct-16 11:00N 41°16' W 072°07'8 0.8
2017-Oct-16 01:45N 41°11' W 072°13'1 1.1
2017-Oct-16 00:44N 41°09' W 072°13'312.1
2017-Oct-16 00:30N 41°12' W 072°12'2 0.6
2017-Oct-15 20:39N 41°10' W 072°13'210.1
2017-Oct-15 20:29N 41°11' W 072°13'713.6
2017-Oct-15 20:00N 41°16' W 072°07'7 3.2
2017-Oct-15 17:45N 41°11' W 072°13'1 1.1
2017-Oct-15 16:46N 41°09' W 072°13'311.2
2017-Oct-15 16:30N 41°12' W 072°12'611.5
2017-Oct-15 16:00N 41°16' W 072°07'8 3.5
2017-Oct-15 13:50N 41°10' W 072°13'1 1.1
2017-Oct-15 12:40N 41°09' W 072°13'212.1
2017-Oct-15 12:30N 41°11' W 072°13'713.5
2017-Oct-15 12:00N 41°16' W 072°07'8 0.4
2017-Oct-14 17:43N 41°10' W 072°13'1 0.9
2017-Oct-14 16:42N 41°09' W 072°13'212.4
2017-Oct-14 16:30N 41°12' W 072°13'612.4
2017-Oct-14 15:59N 41°16' W 072°07'8 3.4
2017-Oct-14 13:45N 41°11' W 072°13'1 0.8
2017-Oct-14 12:39N 41°10' W 072°13'213.2
2017-Oct-14 12:30N 41°12' W 072°13'712.9
2017-Oct-14 12:00N 41°16' W 072°07'6 0.4
2017-Oct-13 20:36N 41°12' W 072°13'214.6
2017-Oct-13 20:30N 41°13' W 072°11'1 0.5
2017-Oct-13 18:18N 41°13' W 072°10'411.4
2017-Oct-13 17:58N 41°11' W 072°13'1 1.0
2017-Oct-13 16:45N 41°09' W 072°13'310.5
2017-Oct-13 16:30N 41°12' W 072°12'612.0
2017-Oct-13 16:00N 41°16' W 072°07'3 1.8
2017-Oct-13 14:17N 41°14' W 072°09'414.1
2017-Oct-13 13:59N 41°11' W 072°13'2 2.0
2017-Oct-13 13:09N 41°09' W 072°14'1 2.7
2017-Oct-13 12:49N 41°10' W 072°13'3 8.4
2017-Oct-13 12:30N 41°12' W 072°11'  
Track history (hours):
 
Tides and Currents Weather Stations Pressure Air Temp Water Temp Dewpoint Dewpoint Depression Visibility Wind Speed Wind Dir Waves Ship Positions

New London

Owner: CROSS SOUND FERRY SVCS INC, NEW LONDON, CT. More information available from US FCC via Universal Licensing System and Coast Guard Vessel Documentation Center.

Last reported at 2017-Oct-22 22:21 UTC. Time now 2017-Nov-23 10:57 UTC.
Position N 41°17' W 072°05'.
Warning: this ship's position is 31 days out of date.

Length 76 m; draft 3 m.

Type: Passenger vessel. MMSI: 366925620.

Date/timePositionNaut miles runAvg speedWind from/ knotsBaromVisibWave heightAir tempDewpointWater temp
2017-Oct-22 22:21N 41°17' W 072°05'514.3
2017-Oct-22 22:00N 41°13' W 072°09'5 4.0
2017-Oct-22 20:47N 41°09' W 072°13'311.4
2017-Oct-22 20:30N 41°12' W 072°12'611.4
2017-Oct-22 20:00N 41°16' W 072°07'1 0.5
2017-Oct-22 18:23N 41°17' W 072°06'813.8
2017-Oct-22 17:47N 41°11' W 072°13'2 3.6
2017-Oct-22 17:17N 41°09' W 072°14'0 0.0
2017-Oct-22 16:51N 41°09' W 072°14'3 7.8
2017-Oct-22 16:30N 41°12' W 072°13'714.0
2017-Oct-22 16:00N 41°17' W 072°07'1 0.6
2017-Oct-22 14:29N 41°17' W 072°06'612.1
2017-Oct-22 14:00N 41°13' W 072°11'4 8.3
2017-Oct-22 13:30N 41°09' W 072°14'0 0.0
2017-Oct-22 13:00N 41°09' W 072°14'2 4.6
2017-Oct-22 12:29N 41°11' W 072°13'713.9
2017-Oct-22 12:00N 41°16' W 072°07'1 0.1
2017-Oct-21 18:19N 41°17' W 072°06'514.4
2017-Oct-21 17:58N 41°13' W 072°10'5 3.7
2017-Oct-21 16:42N 41°09' W 072°14'311.7
2017-Oct-21 16:29N 41°12' W 072°13'713.9
2017-Oct-21 16:00N 41°17' W 072°07'1 0.3
2017-Oct-21 14:18N 41°16' W 072°07'8 4.9
2017-Oct-21 12:36N 41°09' W 072°13'1 8.8
2017-Oct-21 12:30N 41°10' W 072°13'714.0
2017-Oct-21 12:00N 41°16' W 072°08'6 0.4
2017-Oct-20 20:33N 41°11' W 072°12'111.3
2017-Oct-20 20:30N 41°12' W 072°12'611.6
2017-Oct-20 19:57N 41°16' W 072°06'8 3.5
2017-Oct-20 17:43N 41°10' W 072°13'1 1.1
2017-Oct-20 16:41N 41°09' W 072°13'312.0
2017-Oct-20 16:27N 41°12' W 072°13'613.2
2017-Oct-20 16:00N 41°16' W 072°07'7 3.2
2017-Oct-20 13:44N 41°11' W 072°13'2 1.5
2017-Oct-20 12:41N 41°09' W 072°14'2 9.3
2017-Oct-20 12:30N 41°11' W 072°13'714.6
2017-Oct-20 12:00N 41°16' W 072°07'7 0.4
2017-Oct-19 17:18N 41°11' W 072°13'1 0.9
2017-Oct-19 16:11N 41°10' W 072°13'210.7
2017-Oct-19 15:59N 41°12' W 072°13'3 1.3
2017-Oct-19 13:42N 41°14' W 072°10'6 3.9
2017-Oct-19 12:15N 41°09' W 072°14'310.7
2017-Oct-19 11:57N 41°12' W 072°13'614.4
2017-Oct-19 11:30N 41°17' W 072°07'4 0.3
2017-Oct-18 23:34N 41°14' W 072°10'412.1
2017-Oct-18 23:13N 41°11' W 072°13'1 1.1
2017-Oct-18 22:09N 41°09' W 072°14'1 9.9
2017-Oct-18 22:00N 41°11' W 072°13'713.5
2017-Oct-18 21:28N 41°16' W 072°07'1 0.5
2017-Oct-18 19:42N 41°15' W 072°07'314.8
2017-Oct-18 19:30N 41°14' W 072°09'611.4
2017-Oct-18 19:00N 41°09' W 072°14'0 0.0
2017-Oct-18 18:30N 41°09' W 072°14'3 6.1
2017-Oct-18 18:00N 41°12' W 072°12'611.2
2017-Oct-18 17:30N 41°16' W 072°07'6 1.8
2017-Oct-18 14:00N 41°12' W 072°13'714.1
2017-Oct-18 13:30N 41°16' W 072°06'3 1.8
2017-Oct-18 11:40N 41°14' W 072°10'411.3
2017-Oct-18 11:17N 41°11' W 072°14'2 0.1
2017-Oct-18 00:13N 41°09' W 072°14'210.0
2017-Oct-18 00:00N 41°11' W 072°14'6 2.8
2017-Oct-17 21:48N 41°15' W 072°08'612.8
2017-Oct-17 21:18N 41°11' W 072°14'1 1.3
2017-Oct-17 20:14N 41°10' W 072°13'311.9
2017-Oct-17 20:00N 41°12' W 072°12'612.6
2017-Oct-17 19:30N 41°17' W 072°06'8 3.8
2017-Oct-17 17:17N 41°10' W 072°13'1 1.1
2017-Oct-17 16:15N 41°09' W 072°14'311.6
2017-Oct-17 16:00N 41°12' W 072°13'3 1.2
2017-Oct-17 13:41N 41°14' W 072°10'412.5
2017-Oct-17 13:20N 41°11' W 072°14'1 0.9
2017-Oct-17 12:13N 41°10' W 072°13'312.1
2017-Oct-17 12:00N 41°12' W 072°13'2 0.1
2017-Oct-16 20:47N 41°11' W 072°13'2 1.3
2017-Oct-16 19:28N 41°12' W 072°13'612.9
2017-Oct-16 19:00N 41°16' W 072°07'8 3.4
2017-Oct-16 16:46N 41°11' W 072°13'1 1.2
2017-Oct-16 15:43N 41°09' W 072°13'312.0
2017-Oct-16 15:30N 41°12' W 072°13'611.8
2017-Oct-16 15:00N 41°16' W 072°07'7 3.3
2017-Oct-16 12:51N 41°11' W 072°13'1 0.9
2017-Oct-16 11:39N 41°09' W 072°13'212.4
2017-Oct-16 11:27N 41°12' W 072°13'714.7
2017-Oct-16 11:00N 41°16' W 072°07'8 0.8
2017-Oct-16 01:45N 41°11' W 072°13'1 1.1
2017-Oct-16 00:44N 41°09' W 072°13'312.1
2017-Oct-16 00:30N 41°12' W 072°12'2 0.6
2017-Oct-15 20:39N 41°10' W 072°13'210.1
2017-Oct-15 20:29N 41°11' W 072°13'713.6
2017-Oct-15 20:00N 41°16' W 072°07'7 3.2
2017-Oct-15 17:45N 41°11' W 072°13'1 1.1
2017-Oct-15 16:46N 41°09' W 072°13'311.2
2017-Oct-15 16:30N 41°12' W 072°12'611.5
2017-Oct-15 16:00N 41°16' W 072°07'8 3.5
2017-Oct-15 13:50N 41°10' W 072°13'1 1.1
2017-Oct-15 12:40N 41°09' W 072°13'212.1
2017-Oct-15 12:30N 41°11' W 072°13'713.5
2017-Oct-15 12:00N 41°16' W 072°07'8 0.4
2017-Oct-14 17:43N 41°10' W 072°13'1 0.9
2017-Oct-14 16:42N 41°09' W 072°13'212.4
2017-Oct-14 16:30N 41°12' W 072°13'612.4
2017-Oct-14 15:59N 41°16' W 072°07'8 3.4
2017-Oct-14 13:45N 41°11' W 072°13'1 0.8
2017-Oct-14 12:39N 41°10' W 072°13'213.2
2017-Oct-14 12:30N 41°12' W 072°13'712.9
2017-Oct-14 12:00N 41°16' W 072°07'6 0.4
2017-Oct-13 20:36N 41°12' W 072°13'214.6
2017-Oct-13 20:30N 41°13' W 072°11'1 0.5
2017-Oct-13 18:18N 41°13' W 072°10'411.4
2017-Oct-13 17:58N 41°11' W 072°13'1 1.0
2017-Oct-13 16:45N 41°09' W 072°13'310.5
2017-Oct-13 16:30N 41°12' W 072°12'612.0
2017-Oct-13 16:00N 41°16' W 072°07'3 1.8
2017-Oct-13 14:17N 41°14' W 072°09'414.1
2017-Oct-13 13:59N 41°11' W 072°13'2 2.0
2017-Oct-13 13:09N 41°09' W 072°14'1 2.7
2017-Oct-13 12:49N 41°10' W 072°13'3 8.4
2017-Oct-13 12:30N 41°12' W 072°11'  

Dump ship's entire track history